sensor_id;sensor_type;location;lat;lon;timestamp;P1;durP1;ratioP1;P2;durP2;ratioP2
75716;SDS011;64333;50.138;14.332;2022-10-31T00:00:27;113.40;;;44.60;;
75716;SDS011;64333;50.138;14.332;2022-10-31T00:02:52;119.10;;;47.38;;
75716;SDS011;64333;50.138;14.332;2022-10-31T00:05:17;109.85;;;45.13;;
75716;SDS011;64333;50.138;14.332;2022-10-31T00:07:43;94.13;;;38.25;;
75716;SDS011;64333;50.138;14.332;2022-10-31T00:10:08;67.55;;;33.67;;
75716;SDS011;64333;50.138;14.332;2022-10-31T00:12:34;84.82;;;36.35;;
75716;SDS011;64333;50.138;14.332;2022-10-31T00:14:59;78.28;;;35.20;;
75716;SDS011;64333;50.138;14.332;2022-10-31T00:17:24;81.63;;;35.22;;
75716;SDS011;64333;50.138;14.332;2022-10-31T00:19:50;100.90;;;39.25;;
75716;SDS011;64333;50.138;14.332;2022-10-31T00:22:15;76.75;;;39.00;;
75716;SDS011;64333;50.138;14.332;2022-10-31T00:24:40;83.45;;;39.65;;
75716;SDS011;64333;50.138;14.332;2022-10-31T00:27:06;76.82;;;34.25;;
75716;SDS011;64333;50.138;14.332;2022-10-31T00:29:31;72.93;;;35.53;;
75716;SDS011;64333;50.138;14.332;2022-10-31T00:31:57;67.95;;;31.15;;
75716;SDS011;64333;50.138;14.332;2022-10-31T00:34:22;137.27;;;39.80;;
75716;SDS011;64333;50.138;14.332;2022-10-31T00:36:47;142.38;;;43.80;;
75716;SDS011;64333;50.138;14.332;2022-10-31T00:39:13;94.40;;;39.00;;
75716;SDS011;64333;50.138;14.332;2022-10-31T00:41:38;86.05;;;37.85;;
75716;SDS011;64333;50.138;14.332;2022-10-31T00:44:03;91.38;;;38.92;;
75716;SDS011;64333;50.138;14.332;2022-10-31T00:46:29;84.95;;;36.05;;
75716;SDS011;64333;50.138;14.332;2022-10-31T00:48:54;85.38;;;37.83;;
75716;SDS011;64333;50.138;14.332;2022-10-31T00:51:20;111.22;;;38.65;;
75716;SDS011;64333;50.138;14.332;2022-10-31T00:53:45;131.38;;;41.97;;
75716;SDS011;64333;50.138;14.332;2022-10-31T00:56:10;86.22;;;35.08;;
75716;SDS011;64333;50.138;14.332;2022-10-31T00:58:36;109.95;;;39.45;;
75716;SDS011;64333;50.138;14.332;2022-10-31T01:01:01;65.20;;;31.02;;
75716;SDS011;64333;50.138;14.332;2022-10-31T01:03:27;113.20;;;34.92;;
75716;SDS011;64333;50.138;14.332;2022-10-31T01:08:34;97.82;;;39.15;;
75716;SDS011;64333;50.138;14.332;2022-10-31T01:11:02;143.95;;;42.88;;
75716;SDS011;64333;50.138;14.332;2022-10-31T01:13:28;72.95;;;34.40;;
75716;SDS011;64333;50.138;14.332;2022-10-31T01:15:54;110.15;;;39.42;;
75716;SDS011;64333;50.138;14.332;2022-10-31T01:18:24;109.03;;;38.00;;
75716;SDS011;64333;50.138;14.332;2022-10-31T01:21:12;113.45;;;39.10;;
75716;SDS011;64333;50.138;14.332;2022-10-31T01:23:37;87.22;;;35.03;;
75716;SDS011;64333;50.138;14.332;2022-10-31T01:26:04;132.15;;;42.45;;
75716;SDS011;64333;50.138;14.332;2022-10-31T01:28:36;91.90;;;42.83;;
75716;SDS011;64333;50.138;14.332;2022-10-31T01:31:04;104.57;;;41.72;;
75716;SDS011;64333;50.138;14.332;2022-10-31T01:33:32;105.10;;;45.15;;
75716;SDS011;64333;50.138;14.332;2022-10-31T01:35:57;90.07;;;39.20;;
75716;SDS011;64333;50.138;14.332;2022-10-31T01:38:23;94.32;;;38.30;;
75716;SDS011;64333;50.138;14.332;2022-10-31T01:40:49;104.20;;;40.15;;
75716;SDS011;64333;50.138;14.332;2022-10-31T01:43:15;81.13;;;34.08;;
75716;SDS011;64333;50.138;14.332;2022-10-31T01:45:41;114.20;;;40.90;;
75716;SDS011;64333;50.138;14.332;2022-10-31T01:48:14;112.60;;;41.30;;
75716;SDS011;64333;50.138;14.332;2022-10-31T01:50:41;79.40;;;34.50;;
75716;SDS011;64333;50.138;14.332;2022-10-31T01:53:10;97.97;;;38.22;;
75716;SDS011;64333;50.138;14.332;2022-10-31T01:55:40;64.13;;;29.48;;
75716;SDS011;64333;50.138;14.332;2022-10-31T01:58:13;80.90;;;32.63;;
75716;SDS011;64333;50.138;14.332;2022-10-31T02:00:42;82.10;;;33.70;;
75716;SDS011;64333;50.138;14.332;2022-10-31T02:03:10;82.85;;;34.38;;
75716;SDS011;64333;50.138;14.332;2022-10-31T02:05:36;75.50;;;30.98;;
75716;SDS011;64333;50.138;14.332;2022-10-31T02:10:34;88.85;;;32.35;;
75716;SDS011;64333;50.138;14.332;2022-10-31T02:13:01;69.05;;;31.88;;
75716;SDS011;64333;50.138;14.332;2022-10-31T02:15:30;69.63;;;31.35;;
75716;SDS011;64333;50.138;14.332;2022-10-31T02:17:57;55.17;;;27.95;;
75716;SDS011;64333;50.138;14.332;2022-10-31T02:20:24;50.13;;;26.23;;
75716;SDS011;64333;50.138;14.332;2022-10-31T02:34:07;63.08;;;29.13;;
75716;SDS011;64333;50.138;14.332;2022-10-31T02:39:29;83.45;;;30.48;;
75716;SDS011;64333;50.138;14.332;2022-10-31T02:42:14;66.90;;;29.20;;
75716;SDS011;64333;50.138;14.332;2022-10-31T02:47:23;129.43;;;36.75;;
75716;SDS011;64333;50.138;14.332;2022-10-31T02:52:41;126.90;;;34.67;;
75716;SDS011;64333;50.138;14.332;2022-10-31T02:57:50;59.15;;;26.85;;
75716;SDS011;64333;50.138;14.332;2022-10-31T03:00:19;74.60;;;28.33;;
75716;SDS011;64333;50.138;14.332;2022-10-31T03:03:00;93.03;;;32.72;;
75716;SDS011;64333;50.138;14.332;2022-10-31T03:11:01;81.38;;;31.52;;
75716;SDS011;64333;50.138;14.332;2022-10-31T03:13:44;105.72;;;32.40;;
75716;SDS011;64333;50.138;14.332;2022-10-31T03:16:21;74.10;;;31.08;;
75716;SDS011;64333;50.138;14.332;2022-10-31T03:18:58;85.90;;;32.15;;
75716;SDS011;64333;50.138;14.332;2022-10-31T03:24:04;84.40;;;34.88;;
75716;SDS011;64333;50.138;14.332;2022-10-31T03:26:34;90.10;;;30.52;;
75716;SDS011;64333;50.138;14.332;2022-10-31T03:29:04;79.95;;;33.45;;
75716;SDS011;64333;50.138;14.332;2022-10-31T03:31:33;71.03;;;29.80;;
75716;SDS011;64333;50.138;14.332;2022-10-31T03:34:02;74.95;;;29.45;;
75716;SDS011;64333;50.138;14.332;2022-10-31T03:36:30;61.65;;;28.10;;
75716;SDS011;64333;50.138;14.332;2022-10-31T03:39:00;58.10;;;27.00;;
75716;SDS011;64333;50.138;14.332;2022-10-31T03:41:30;63.63;;;28.27;;
75716;SDS011;64333;50.138;14.332;2022-10-31T03:43:59;70.32;;;29.05;;
75716;SDS011;64333;50.138;14.332;2022-10-31T03:46:29;59.83;;;26.00;;
75716;SDS011;64333;50.138;14.332;2022-10-31T03:48:55;194.15;;;38.38;;
75716;SDS011;64333;50.138;14.332;2022-10-31T03:51:26;62.60;;;27.45;;
75716;SDS011;64333;50.138;14.332;2022-10-31T03:56:45;81.13;;;30.70;;
75716;SDS011;64333;50.138;14.332;2022-10-31T03:59:39;69.35;;;27.52;;
75716;SDS011;64333;50.138;14.332;2022-10-31T04:02:10;60.05;;;29.90;;
75716;SDS011;64333;50.138;14.332;2022-10-31T04:04:40;66.95;;;28.80;;
75716;SDS011;64333;50.138;14.332;2022-10-31T04:07:08;82.15;;;29.77;;
75716;SDS011;64333;50.138;14.332;2022-10-31T04:09:36;75.10;;;30.88;;
75716;SDS011;64333;50.138;14.332;2022-10-31T04:12:04;65.82;;;28.73;;
75716;SDS011;64333;50.138;14.332;2022-10-31T04:14:34;59.42;;;27.73;;
75716;SDS011;64333;50.138;14.332;2022-10-31T04:17:02;89.93;;;30.25;;
75716;SDS011;64333;50.138;14.332;2022-10-31T04:19:32;59.20;;;27.23;;
75716;SDS011;64333;50.138;14.332;2022-10-31T04:21:58;60.08;;;26.90;;
75716;SDS011;64333;50.138;14.332;2022-10-31T04:24:24;72.03;;;27.52;;
75716;SDS011;64333;50.138;14.332;2022-10-31T04:26:49;54.75;;;24.05;;
75716;SDS011;64333;50.138;14.332;2022-10-31T04:29:14;57.42;;;24.95;;
75716;SDS011;64333;50.138;14.332;2022-10-31T04:31:40;51.20;;;24.80;;
75716;SDS011;64333;50.138;14.332;2022-10-31T04:34:05;51.58;;;24.88;;
75716;SDS011;64333;50.138;14.332;2022-10-31T04:36:32;41.70;;;22.23;;
75716;SDS011;64333;50.138;14.332;2022-10-31T04:38:57;49.58;;;22.77;;
75716;SDS011;64333;50.138;14.332;2022-10-31T04:41:23;42.63;;;23.33;;
75716;SDS011;64333;50.138;14.332;2022-10-31T04:43:48;49.67;;;22.92;;
75716;SDS011;64333;50.138;14.332;2022-10-31T04:46:13;69.95;;;26.10;;
75716;SDS011;64333;50.138;14.332;2022-10-31T04:48:39;60.22;;;24.85;;
75716;SDS011;64333;50.138;14.332;2022-10-31T04:51:04;58.17;;;25.08;;
75716;SDS011;64333;50.138;14.332;2022-10-31T04:53:30;58.38;;;25.63;;
75716;SDS011;64333;50.138;14.332;2022-10-31T04:55:57;54.83;;;25.05;;
75716;SDS011;64333;50.138;14.332;2022-10-31T04:58:23;58.28;;;25.00;;
75716;SDS011;64333;50.138;14.332;2022-10-31T05:00:51;68.22;;;24.80;;
75716;SDS011;64333;50.138;14.332;2022-10-31T05:03:17;58.80;;;21.05;;
75716;SDS011;64333;50.138;14.332;2022-10-31T05:05:42;46.97;;;21.85;;
75716;SDS011;64333;50.138;14.332;2022-10-31T05:08:08;46.10;;;24.20;;
75716;SDS011;64333;50.138;14.332;2022-10-31T05:10:33;55.05;;;24.85;;
75716;SDS011;64333;50.138;14.332;2022-10-31T05:12:59;51.72;;;24.30;;
75716;SDS011;64333;50.138;14.332;2022-10-31T05:15:27;47.00;;;22.65;;
75716;SDS011;64333;50.138;14.332;2022-10-31T05:17:53;54.13;;;23.48;;
75716;SDS011;64333;50.138;14.332;2022-10-31T05:20:20;55.25;;;23.65;;
75716;SDS011;64333;50.138;14.332;2022-10-31T05:22:48;49.42;;;22.65;;
75716;SDS011;64333;50.138;14.332;2022-10-31T05:25:15;59.90;;;24.60;;
75716;SDS011;64333;50.138;14.332;2022-10-31T05:27:41;55.45;;;24.83;;
75716;SDS011;64333;50.138;14.332;2022-10-31T05:30:09;48.95;;;22.58;;
75716;SDS011;64333;50.138;14.332;2022-10-31T05:32:36;48.35;;;23.63;;
75716;SDS011;64333;50.138;14.332;2022-10-31T05:35:06;49.17;;;22.77;;
75716;SDS011;64333;50.138;14.332;2022-10-31T05:37:35;58.78;;;26.95;;
75716;SDS011;64333;50.138;14.332;2022-10-31T05:40:02;40.13;;;21.02;;
75716;SDS011;64333;50.138;14.332;2022-10-31T05:42:28;43.55;;;19.55;;
75716;SDS011;64333;50.138;14.332;2022-10-31T05:44:54;51.47;;;23.38;;
75716;SDS011;64333;50.138;14.332;2022-10-31T05:47:19;48.75;;;23.00;;
75716;SDS011;64333;50.138;14.332;2022-10-31T05:49:45;47.40;;;21.90;;
75716;SDS011;64333;50.138;14.332;2022-10-31T05:52:10;46.72;;;22.33;;
75716;SDS011;64333;50.138;14.332;2022-10-31T05:54:35;44.78;;;20.95;;
75716;SDS011;64333;50.138;14.332;2022-10-31T05:57:01;42.45;;;19.98;;
75716;SDS011;64333;50.138;14.332;2022-10-31T05:59:26;42.67;;;20.50;;
75716;SDS011;64333;50.138;14.332;2022-10-31T06:01:52;43.35;;;20.73;;
75716;SDS011;64333;50.138;14.332;2022-10-31T06:04:17;44.95;;;22.95;;
75716;SDS011;64333;50.138;14.332;2022-10-31T06:06:42;48.30;;;21.08;;
75716;SDS011;64333;50.138;14.332;2022-10-31T06:09:08;40.10;;;19.95;;
75716;SDS011;64333;50.138;14.332;2022-10-31T06:11:33;39.53;;;21.08;;
75716;SDS011;64333;50.138;14.332;2022-10-31T06:13:58;41.17;;;21.02;;
75716;SDS011;64333;50.138;14.332;2022-10-31T06:16:24;39.47;;;21.95;;
75716;SDS011;64333;50.138;14.332;2022-10-31T06:18:49;30.02;;;17.73;;
75716;SDS011;64333;50.138;14.332;2022-10-31T06:21:15;31.15;;;18.33;;
75716;SDS011;64333;50.138;14.332;2022-10-31T06:23:40;26.23;;;17.40;;
75716;SDS011;64333;50.138;14.332;2022-10-31T06:26:06;34.22;;;18.42;;
75716;SDS011;64333;50.138;14.332;2022-10-31T06:28:31;27.25;;;17.45;;
75716;SDS011;64333;50.138;14.332;2022-10-31T06:30:56;24.67;;;16.23;;
75716;SDS011;64333;50.138;14.332;2022-10-31T06:33:22;20.63;;;12.75;;
75716;SDS011;64333;50.138;14.332;2022-10-31T06:35:47;16.60;;;11.73;;
75716;SDS011;64333;50.138;14.332;2022-10-31T06:38:13;20.98;;;13.77;;
75716;SDS011;64333;50.138;14.332;2022-10-31T06:40:39;20.42;;;13.27;;
75716;SDS011;64333;50.138;14.332;2022-10-31T06:43:05;15.25;;;11.40;;
75716;SDS011;64333;50.138;14.332;2022-10-31T06:45:30;15.65;;;10.88;;
75716;SDS011;64333;50.138;14.332;2022-10-31T06:47:55;14.25;;;10.20;;
75716;SDS011;64333;50.138;14.332;2022-10-31T06:50:22;15.80;;;11.00;;
75716;SDS011;64333;50.138;14.332;2022-10-31T06:52:55;17.20;;;12.15;;
75716;SDS011;64333;50.138;14.332;2022-10-31T06:55:22;16.85;;;11.95;;
75716;SDS011;64333;50.138;14.332;2022-10-31T06:57:52;15.65;;;12.05;;
75716;SDS011;64333;50.138;14.332;2022-10-31T07:00:19;17.42;;;12.60;;
75716;SDS011;64333;50.138;14.332;2022-10-31T07:02:58;22.33;;;12.95;;
75716;SDS011;64333;50.138;14.332;2022-10-31T07:05:25;24.38;;;14.00;;
75716;SDS011;64333;50.138;14.332;2022-10-31T07:07:51;22.15;;;13.55;;
75716;SDS011;64333;50.138;14.332;2022-10-31T07:10:29;25.33;;;14.43;;
75716;SDS011;64333;50.138;14.332;2022-10-31T07:12:56;30.30;;;15.18;;
75716;SDS011;64333;50.138;14.332;2022-10-31T07:15:23;21.25;;;13.25;;
75716;SDS011;64333;50.138;14.332;2022-10-31T07:17:49;36.22;;;14.50;;
75716;SDS011;64333;50.138;14.332;2022-10-31T07:20:27;23.25;;;12.75;;
75716;SDS011;64333;50.138;14.332;2022-10-31T07:22:53;32.85;;;13.98;;
75716;SDS011;64333;50.138;14.332;2022-10-31T07:25:19;17.45;;;12.65;;
75716;SDS011;64333;50.138;14.332;2022-10-31T07:27:44;19.23;;;12.70;;
75716;SDS011;64333;50.138;14.332;2022-10-31T07:30:11;18.98;;;12.80;;
75716;SDS011;64333;50.138;14.332;2022-10-31T07:32:38;18.52;;;12.80;;
75716;SDS011;64333;50.138;14.332;2022-10-31T07:35:05;16.98;;;12.30;;
75716;SDS011;64333;50.138;14.332;2022-10-31T07:37:35;17.67;;;12.57;;
75716;SDS011;64333;50.138;14.332;2022-10-31T07:40:01;16.88;;;13.10;;
75716;SDS011;64333;50.138;14.332;2022-10-31T07:42:27;17.42;;;12.30;;
75716;SDS011;64333;50.138;14.332;2022-10-31T07:44:52;21.08;;;13.32;;
75716;SDS011;64333;50.138;14.332;2022-10-31T07:47:18;18.58;;;12.95;;
75716;SDS011;64333;50.138;14.332;2022-10-31T07:49:43;19.67;;;12.80;;
75716;SDS011;64333;50.138;14.332;2022-10-31T07:52:08;14.18;;;11.38;;
75716;SDS011;64333;50.138;14.332;2022-10-31T07:54:34;14.95;;;11.73;;
75716;SDS011;64333;50.138;14.332;2022-10-31T07:56:59;15.00;;;12.25;;
75716;SDS011;64333;50.138;14.332;2022-10-31T07:59:24;16.70;;;12.60;;
75716;SDS011;64333;50.138;14.332;2022-10-31T08:01:50;17.55;;;13.13;;
75716;SDS011;64333;50.138;14.332;2022-10-31T08:04:16;22.20;;;15.23;;
75716;SDS011;64333;50.138;14.332;2022-10-31T08:06:41;26.38;;;14.35;;
75716;SDS011;64333;50.138;14.332;2022-10-31T08:09:06;22.95;;;14.45;;
75716;SDS011;64333;50.138;14.332;2022-10-31T08:11:32;16.80;;;13.18;;
75716;SDS011;64333;50.138;14.332;2022-10-31T08:13:57;18.77;;;14.38;;
75716;SDS011;64333;50.138;14.332;2022-10-31T08:16:23;17.13;;;13.77;;
75716;SDS011;64333;50.138;14.332;2022-10-31T08:18:48;19.73;;;13.80;;
75716;SDS011;64333;50.138;14.332;2022-10-31T08:21:13;21.48;;;14.07;;
75716;SDS011;64333;50.138;14.332;2022-10-31T08:23:38;19.33;;;14.32;;
75716;SDS011;64333;50.138;14.332;2022-10-31T08:26:04;23.88;;;15.27;;
75716;SDS011;64333;50.138;14.332;2022-10-31T08:28:31;19.00;;;14.13;;
75716;SDS011;64333;50.138;14.332;2022-10-31T08:30:57;16.15;;;12.57;;
75716;SDS011;64333;50.138;14.332;2022-10-31T08:33:23;18.85;;;14.13;;
75716;SDS011;64333;50.138;14.332;2022-10-31T08:35:49;17.42;;;13.20;;
75716;SDS011;64333;50.138;14.332;2022-10-31T08:38:14;18.17;;;13.30;;
75716;SDS011;64333;50.138;14.332;2022-10-31T08:40:40;17.75;;;12.73;;
75716;SDS011;64333;50.138;14.332;2022-10-31T08:43:12;19.00;;;15.35;;
75716;SDS011;64333;50.138;14.332;2022-10-31T08:45:39;17.60;;;13.18;;
75716;SDS011;64333;50.138;14.332;2022-10-31T08:48:05;19.00;;;14.23;;
75716;SDS011;64333;50.138;14.332;2022-10-31T08:50:34;19.58;;;14.13;;
75716;SDS011;64333;50.138;14.332;2022-10-31T08:53:04;18.15;;;15.55;;
75716;SDS011;64333;50.138;14.332;2022-10-31T08:55:33;17.73;;;14.07;;
75716;SDS011;64333;50.138;14.332;2022-10-31T08:58:02;15.30;;;12.38;;
75716;SDS011;64333;50.138;14.332;2022-10-31T09:00:33;17.42;;;13.65;;
75716;SDS011;64333;50.138;14.332;2022-10-31T09:03:18;17.38;;;13.68;;
75716;SDS011;64333;50.138;14.332;2022-10-31T09:05:47;16.30;;;13.90;;
75716;SDS011;64333;50.138;14.332;2022-10-31T09:08:13;16.10;;;14.40;;
75716;SDS011;64333;50.138;14.332;2022-10-31T09:10:39;15.13;;;13.05;;
75716;SDS011;64333;50.138;14.332;2022-10-31T09:13:06;14.15;;;12.68;;
75716;SDS011;64333;50.138;14.332;2022-10-31T09:15:34;16.05;;;14.05;;
75716;SDS011;64333;50.138;14.332;2022-10-31T09:18:01;16.20;;;14.55;;
75716;SDS011;64333;50.138;14.332;2022-10-31T09:20:27;15.55;;;12.85;;
75716;SDS011;64333;50.138;14.332;2022-10-31T09:22:57;15.35;;;13.57;;
75716;SDS011;64333;50.138;14.332;2022-10-31T09:25:24;14.45;;;12.55;;
75716;SDS011;64333;50.138;14.332;2022-10-31T09:27:50;15.65;;;13.63;;
75716;SDS011;64333;50.138;14.332;2022-10-31T09:30:15;14.13;;;12.63;;
75716;SDS011;64333;50.138;14.332;2022-10-31T09:32:41;13.68;;;11.73;;
75716;SDS011;64333;50.138;14.332;2022-10-31T09:35:06;16.67;;;13.38;;
75716;SDS011;64333;50.138;14.332;2022-10-31T09:37:32;16.30;;;13.05;;
75716;SDS011;64333;50.138;14.332;2022-10-31T09:39:58;12.82;;;11.38;;
75716;SDS011;64333;50.138;14.332;2022-10-31T09:50:29;16.65;;;13.77;;
75716;SDS011;64333;50.138;14.332;2022-10-31T09:55:35;15.15;;;13.27;;
75716;SDS011;64333;50.138;14.332;2022-10-31T09:58:01;16.80;;;13.90;;
75716;SDS011;64333;50.138;14.332;2022-10-31T10:00:27;18.52;;;16.67;;
75716;SDS011;64333;50.138;14.332;2022-10-31T10:06:15;18.90;;;15.30;;
75716;SDS011;64333;50.138;14.332;2022-10-31T10:08:44;19.67;;;16.23;;
75716;SDS011;64333;50.138;14.332;2022-10-31T10:15:04;20.35;;;15.60;;
75716;SDS011;64333;50.138;14.332;2022-10-31T10:30:35;23.80;;;16.52;;
75716;SDS011;64333;50.138;14.332;2022-10-31T10:33:17;26.30;;;17.85;;
75716;SDS011;64333;50.138;14.332;2022-10-31T10:38:37;33.47;;;18.85;;
75716;SDS011;64333;50.138;14.332;2022-10-31T10:41:29;32.53;;;18.77;;
75716;SDS011;64333;50.138;14.332;2022-10-31T10:43:57;29.05;;;18.33;;
75716;SDS011;64333;50.138;14.332;2022-10-31T10:46:34;37.42;;;20.02;;
75716;SDS011;64333;50.138;14.332;2022-10-31T10:54:54;38.90;;;20.40;;
75716;SDS011;64333;50.138;14.332;2022-10-31T11:03:11;37.83;;;22.20;;
75716;SDS011;64333;50.138;14.332;2022-10-31T11:11:04;34.95;;;20.40;;
75716;SDS011;64333;50.138;14.332;2022-10-31T11:13:36;32.78;;;21.17;;
75716;SDS011;64333;50.138;14.332;2022-10-31T11:16:03;36.70;;;19.88;;
75716;SDS011;64333;50.138;14.332;2022-10-31T11:18:32;30.42;;;18.85;;
75716;SDS011;64333;50.138;14.332;2022-10-31T11:23:29;28.17;;;19.98;;
75716;SDS011;64333;50.138;14.332;2022-10-31T11:25:59;33.65;;;19.23;;
75716;SDS011;64333;50.138;14.332;2022-10-31T11:28:30;33.10;;;20.98;;
75716;SDS011;64333;50.138;14.332;2022-10-31T11:31:12;28.60;;;21.25;;
75716;SDS011;64333;50.138;14.332;2022-10-31T11:33:45;27.80;;;19.20;;
75716;SDS011;64333;50.138;14.332;2022-10-31T11:36:20;29.63;;;21.65;;
75716;SDS011;64333;50.138;14.332;2022-10-31T11:38:49;26.73;;;20.10;;
75716;SDS011;64333;50.138;14.332;2022-10-31T11:41:17;27.58;;;20.27;;
75716;SDS011;64333;50.138;14.332;2022-10-31T11:43:49;26.27;;;19.40;;
75716;SDS011;64333;50.138;14.332;2022-10-31T11:46:19;24.05;;;18.38;;
75716;SDS011;64333;50.138;14.332;2022-10-31T11:48:49;27.15;;;20.17;;
75716;SDS011;64333;50.138;14.332;2022-10-31T11:51:24;25.33;;;19.30;;
75716;SDS011;64333;50.138;14.332;2022-10-31T11:53:54;25.08;;;18.90;;
75716;SDS011;64333;50.138;14.332;2022-10-31T11:56:22;26.75;;;19.45;;
75716;SDS011;64333;50.138;14.332;2022-10-31T11:58:59;22.20;;;17.92;;
75716;SDS011;64333;50.138;14.332;2022-10-31T12:01:28;22.30;;;18.70;;
75716;SDS011;64333;50.138;14.332;2022-10-31T12:04:06;22.63;;;17.92;;
75716;SDS011;64333;50.138;14.332;2022-10-31T12:06:34;23.67;;;17.27;;
75716;SDS011;64333;50.138;14.332;2022-10-31T12:09:01;25.25;;;17.33;;
75716;SDS011;64333;50.138;14.332;2022-10-31T12:12:20;22.27;;;17.48;;
75716;SDS011;64333;50.138;14.332;2022-10-31T12:17:17;24.17;;;18.30;;
75716;SDS011;64333;50.138;14.332;2022-10-31T12:22:56;24.48;;;17.13;;
75716;SDS011;64333;50.138;14.332;2022-10-31T12:33:17;23.05;;;16.15;;
75716;SDS011;64333;50.138;14.332;2022-10-31T12:49:45;25.33;;;16.88;;
75716;SDS011;64333;50.138;14.332;2022-10-31T12:58:17;24.77;;;16.90;;
75716;SDS011;64333;50.138;14.332;2022-10-31T13:01:11;23.88;;;17.52;;
75716;SDS011;64333;50.138;14.332;2022-10-31T13:03:44;25.88;;;17.98;;
75716;SDS011;64333;50.138;14.332;2022-10-31T13:06:13;25.00;;;17.33;;
75716;SDS011;64333;50.138;14.332;2022-10-31T13:08:53;27.40;;;19.50;;
75716;SDS011;64333;50.138;14.332;2022-10-31T13:11:24;25.25;;;17.08;;
75716;SDS011;64333;50.138;14.332;2022-10-31T13:16:30;26.83;;;18.33;;
75716;SDS011;64333;50.138;14.332;2022-10-31T13:19:01;27.75;;;19.10;;
75716;SDS011;64333;50.138;14.332;2022-10-31T13:21:39;26.40;;;17.65;;
75716;SDS011;64333;50.138;14.332;2022-10-31T13:24:12;26.98;;;18.95;;
75716;SDS011;64333;50.138;14.332;2022-10-31T13:32:15;29.42;;;19.52;;
75716;SDS011;64333;50.138;14.332;2022-10-31T13:34:42;29.45;;;19.63;;
75716;SDS011;64333;50.138;14.332;2022-10-31T13:37:15;31.13;;;19.63;;
75716;SDS011;64333;50.138;14.332;2022-10-31T13:45:08;32.38;;;19.42;;
75716;SDS011;64333;50.138;14.332;2022-10-31T13:47:37;33.35;;;19.75;;
75716;SDS011;64333;50.138;14.332;2022-10-31T13:50:14;34.05;;;19.80;;
75716;SDS011;64333;50.138;14.332;2022-10-31T13:52:43;32.75;;;20.65;;
75716;SDS011;64333;50.138;14.332;2022-10-31T13:55:34;32.75;;;20.75;;
75716;SDS011;64333;50.138;14.332;2022-10-31T13:58:03;33.95;;;19.50;;
75716;SDS011;64333;50.138;14.332;2022-10-31T14:00:30;36.10;;;20.63;;
75716;SDS011;64333;50.138;14.332;2022-10-31T14:02:59;33.72;;;19.73;;
75716;SDS011;64333;50.138;14.332;2022-10-31T14:05:26;36.78;;;21.10;;
75716;SDS011;64333;50.138;14.332;2022-10-31T14:07:53;38.55;;;20.65;;
75716;SDS011;64333;50.138;14.332;2022-10-31T14:12:47;37.70;;;22.58;;
75716;SDS011;64333;50.138;14.332;2022-10-31T14:15:20;34.88;;;19.65;;
75716;SDS011;64333;50.138;14.332;2022-10-31T14:18:01;35.15;;;21.50;;
75716;SDS011;64333;50.138;14.332;2022-10-31T14:20:34;34.00;;;18.98;;
75716;SDS011;64333;50.138;14.332;2022-10-31T14:25:53;34.88;;;19.10;;
75716;SDS011;64333;50.138;14.332;2022-10-31T14:28:31;38.72;;;20.98;;
75716;SDS011;64333;50.138;14.332;2022-10-31T14:30:58;37.35;;;21.42;;
75716;SDS011;64333;50.138;14.332;2022-10-31T14:33:25;37.58;;;20.73;;
75716;SDS011;64333;50.138;14.332;2022-10-31T14:38:24;40.97;;;21.93;;
75716;SDS011;64333;50.138;14.332;2022-10-31T14:46:55;44.13;;;22.73;;
75716;SDS011;64333;50.138;14.332;2022-10-31T14:52:05;45.60;;;23.02;;
75716;SDS011;64333;50.138;14.332;2022-10-31T14:54:38;42.80;;;23.55;;
75716;SDS011;64333;50.138;14.332;2022-10-31T14:57:16;44.17;;;25.23;;
75716;SDS011;64333;50.138;14.332;2022-10-31T15:00:06;46.35;;;23.23;;
75716;SDS011;64333;50.138;14.332;2022-10-31T15:02:58;48.90;;;24.63;;
75716;SDS011;64333;50.138;14.332;2022-10-31T15:05:26;46.35;;;22.60;;
75716;SDS011;64333;50.138;14.332;2022-10-31T15:07:54;50.78;;;26.10;;
75716;SDS011;64333;50.138;14.332;2022-10-31T15:12:54;52.78;;;25.67;;
75716;SDS011;64333;50.138;14.332;2022-10-31T15:15:24;64.20;;;25.55;;
75716;SDS011;64333;50.138;14.332;2022-10-31T15:17:52;90.07;;;26.17;;
75716;SDS011;64333;50.138;14.332;2022-10-31T15:20:21;122.47;;;26.05;;
75716;SDS011;64333;50.138;14.332;2022-10-31T15:22:49;138.98;;;30.10;;
75716;SDS011;64333;50.138;14.332;2022-10-31T15:25:17;124.53;;;27.50;;
75716;SDS011;64333;50.138;14.332;2022-10-31T15:27:45;196.77;;;30.63;;
75716;SDS011;64333;50.138;14.332;2022-10-31T15:30:16;164.68;;;31.10;;
75716;SDS011;64333;50.138;14.332;2022-10-31T15:32:52;211.00;;;31.95;;
75716;SDS011;64333;50.138;14.332;2022-10-31T15:35:19;118.90;;;27.45;;
75716;SDS011;64333;50.138;14.332;2022-10-31T15:37:45;155.65;;;33.25;;
75716;SDS011;64333;50.138;14.332;2022-10-31T15:40:17;266.38;;;36.70;;
75716;SDS011;64333;50.138;14.332;2022-10-31T15:42:46;109.80;;;27.20;;
75716;SDS011;64333;50.138;14.332;2022-10-31T15:45:21;177.60;;;31.38;;
75716;SDS011;64333;50.138;14.332;2022-10-31T15:48:02;174.48;;;31.60;;
75716;SDS011;64333;50.138;14.332;2022-10-31T15:50:38;163.75;;;32.72;;
75716;SDS011;64333;50.138;14.332;2022-10-31T15:53:11;370.95;;;44.85;;
75716;SDS011;64333;50.138;14.332;2022-10-31T15:55:54;199.25;;;37.50;;
75716;SDS011;64333;50.138;14.332;2022-10-31T15:58:22;216.20;;;37.28;;
75716;SDS011;64333;50.138;14.332;2022-10-31T16:01:05;164.10;;;35.90;;
75716;SDS011;64333;50.138;14.332;2022-10-31T16:03:44;221.55;;;38.83;;
75716;SDS011;64333;50.138;14.332;2022-10-31T16:06:26;201.15;;;36.22;;
75716;SDS011;64333;50.138;14.332;2022-10-31T16:08:51;253.90;;;34.60;;
75716;SDS011;64333;50.138;14.332;2022-10-31T16:11:22;222.23;;;34.22;;
75716;SDS011;64333;50.138;14.332;2022-10-31T16:16:30;198.05;;;31.70;;
75716;SDS011;64333;50.138;14.332;2022-10-31T16:18:56;183.88;;;33.45;;
75716;SDS011;64333;50.138;14.332;2022-10-31T16:21:25;164.57;;;31.40;;
75716;SDS011;64333;50.138;14.332;2022-10-31T16:23:55;180.60;;;31.38;;
75716;SDS011;64333;50.138;14.332;2022-10-31T16:26:25;205.18;;;34.53;;
75716;SDS011;64333;50.138;14.332;2022-10-31T16:28:52;219.43;;;32.40;;
75716;SDS011;64333;50.138;14.332;2022-10-31T16:31:30;158.02;;;29.38;;
75716;SDS011;64333;50.138;14.332;2022-10-31T16:34:03;222.55;;;38.03;;
75716;SDS011;64333;50.138;14.332;2022-10-31T16:36:39;213.90;;;38.45;;
75716;SDS011;64333;50.138;14.332;2022-10-31T16:39:05;141.45;;;28.23;;
75716;SDS011;64333;50.138;14.332;2022-10-31T16:41:32;63.50;;;21.08;;
75716;SDS011;64333;50.138;14.332;2022-10-31T16:44:01;145.07;;;29.92;;
75716;SDS011;64333;50.138;14.332;2022-10-31T16:46:29;122.57;;;28.88;;
75716;SDS011;64333;50.138;14.332;2022-10-31T16:48:54;98.65;;;25.50;;
75716;SDS011;64333;50.138;14.332;2022-10-31T16:51:20;204.75;;;35.47;;
75716;SDS011;64333;50.138;14.332;2022-10-31T16:53:46;141.90;;;29.58;;
75716;SDS011;64333;50.138;14.332;2022-10-31T16:56:15;199.38;;;37.95;;